Morning Sun, Iowa
Current Conditions -  °F | °C
As of 8:35 AM on Monday 22 Dec 2014 (Local Time) from KMPZ Reporting Station
Drizzle Drizzle  
Wind Chill: 29°   Ceiling: 3000
Heat Index: 36°   Visibility: 4mi
Dew Point: 33°   Wind: 10mph
Humidity: 89%   Direction: 120°ESE
Pressure: 29.72"   Gusts: NA
Location:  41.1°N, 91.26°W
Report Text: KMPZ 221435Z AUTO 12009KT 4SM DZ OVC030 02/01 A2972 RMK AO2 T00240007
Loading
Personal Weather Stations






























Interactive Weather Map New forecast layout! Learn more

10-Day Weather Forecast

Advertisements
Track Severe Weather on mobile